Latest Weather Observations for Williamtown

IDN60901

Issued at 5:41 am EST Sunday 26 April 2015 (issued every 10 minutes, with the page automatically refreshed every 10 minutes)

About weather observations | Map of Sydney area stations | Latest observations for Sydney area | Other Formats
Station Details ID: 061078 Name: WILLIAMTOWN RAAF Lat: -32.79 Lon: 151.84 Height: 9.0 m
Data from the previous 72 hours. | See also: Recent months at Williamtown
Date/Time
EST
Tmp

°C
App
Tmp
°C
Dew
Point
°C
Rel
Hum
%
Delta-T

°C
Wind Press
QNH
hPa
Press
MSL
hPa
Rain
since
9 am
mm
Dir
 
Spd
km/h
Gust
km/h
Spd
kts
Gust
kts
26/05:30am 12.8 7.7 7.7 71 2.5 WNW 24 33 13 18 1006.8 1006.8 0.0
26/05:00am 12.8 7.8 7.9 72 2.4 NW 24 30 13 16 1006.4 1006.4 0.0
26/04:30am 13.1 7.3 7.8 70 2.6 WNW 28 39 15 21 1006.8 1006.8 0.0
26/04:00am 13.5 7.0 8.1 70 2.7 WNW 32 39 17 21 1007.0 1007.0 0.0
26/03:30am 13.6 9.7 10.7 82 1.5 WNW 22 30 12 16 1006.6 1006.6 0.0
26/03:00am 14.0 11.0 10.8 81 1.7 WNW 17 26 9 14 1006.8 1006.8 0.0
26/02:30am 14.1 12.9 11.7 85 1.3 WSW 9 13 5 7 1007.0 1007.0 0.0
26/02:00am 14.6 11.8 11.4 81 1.7 W 17 22 9 12 1007.0 1007.0 0.0
26/01:30am 14.6 12.4 12.2 85 1.3 NW 15 17 8 9 1007.1 1007.1 0.0
26/01:00am 13.6 11.5 12.3 92 0.7 NW 15 17 8 9 1007.0 1007.0 0.0
26/12:30am 13.9 13.0 12.6 92 0.7 WNW 9 11 5 6 1007.1 1007.1 0.0
 
Date/Time
EST
Tmp

°C
App
Tmp
°C
Dew
Point
°C
Rel
Hum
%
Delta-T

°C
Wind Press
QNH
hPa
Press
MSL
hPa
Rain
since
9 am
mm
Dir
 
Spd
km/h
Gust
km/h
Spd
kts
Gust
kts
25/11:30pm 15.3 12.7 13.3 88 1.1 SW 19 26 10 14 1007.2 1007.2 0.0
25/11:00pm 15.4 14.0 13.4 88 1.1 WSW 13 19 7 10 1007.2 1007.2 0.0
25/10:30pm 15.3 12.2 12.2 82 1.7 WSW 20 30 11 16 1007.0 1007.0 0.0
25/10:00pm 15.6 15.0 12.3 81 1.8 WNW 7 9 4 5 1006.2 1006.2 0.0
25/09:00pm 18.3 15.1 13.2 72 2.9 N 22 56 12 30 1006.6 1006.6 0.0
25/08:59pm 18.1 15.3 13.1 72 2.8 N 20 56 11 30 1007.0 1007.0 0.0
25/08:57pm 17.0 14.8 13.3 79 2.1 NNE 17 54 9 29 1007.0 1007.0 0.0
25/08:30pm 17.7 16.0 13.5 76 2.4 NE 15 19 8 10 1005.6 1005.6 0.0
25/08:00pm 18.4 17.0 13.5 73 2.8 NE 13 17 7 9 1005.6 1005.6 0.0
25/07:30pm 19.0 18.1 13.6 71 3.1 ENE 11 15 6 8 1005.6 1005.6 0.0
25/07:00pm 20.2 18.4 13.4 65 3.9 NW 15 32 8 17 1006.2 1006.2 0.0
25/06:47pm 20.2 16.9 12.8 62 4.2 WNW 22 54 12 29 1006.1 1006.1 0.0
25/06:30pm 19.6 18.2 13.5 68 3.5 ENE 13 17 7 9 1005.0 1005.0 0.0
25/06:00pm 19.3 17.8 13.1 67 3.5 ENE 13 17 7 9 1005.0 1005.0 0.0
25/05:30pm 20.0 18.3 12.6 62 4.2 ENE 13 17 7 9 1005.0 1005.0 0.0
25/05:00pm 21.1 18.9 12.0 56 5.1 ENE 15 22 8 12 1005.0 1005.0 0.0
25/04:30pm 22.7 20.1 12.1 51 6.0 E 17 22 9 12 1004.7 1004.7 0.0
25/04:00pm 24.2 23.0 10.3 41 7.7 NNE 7 11 4 6 1004.9 1004.9 0.0
25/03:30pm 24.4 22.5 10.6 41 7.7 N 11 15 6 8 1005.0 1005.0 0.0
25/03:00pm 24.6 22.7 10.4 40 7.9 N 11 15 6 8 1005.2 1005.2 0.0
25/02:30pm 24.7 23.0 10.0 39 8.1 N 9 13 5 7 1005.5 1005.5 0.0
25/02:00pm 24.3 22.2 9.7 39 8.0 NW 11 19 6 10 1005.8 1005.8 0.0
25/01:30pm 24.8 21.5 9.7 38 8.3 WNW 17 20 9 11 1006.1 1006.1 0.0
25/01:00pm 24.4 22.1 10.6 41 7.7 NW 13 20 7 11 1006.3 1006.3 0.0
25/12:30pm 24.1 21.3 9.9 40 7.8 NW 15 24 8 13 1006.8 1006.8 0.0
25/12:00pm 23.9 21.1 10.1 41 7.6 WNW 15 22 8 12 1007.2 1007.2 0.0
25/11:30am 23.2 20.9 10.5 44 7.0 WNW 13 19 7 10 1008.0 1008.0 0.0
25/11:00am 22.8 20.0 11.4 48 6.4 WNW 17 22 9 12 1008.5 1008.4 0.0
25/10:30am 22.2 19.4 11.2 49 6.1 WNW 17 22 9 12 1008.9 1008.8 0.0
25/10:00am 21.6 18.0 10.7 50 6.0 WNW 20 26 11 14 1009.2 1009.1 0.0
25/09:30am 21.1 17.9 11.4 54 5.4 WNW 19 22 10 12 1009.3 1009.2 0.0
25/08:00am 18.3 15.3 11.8 66 3.6 NW 19 28 10 15 1009.2 1009.1 0.0
25/07:30am 17.1 15.1 11.6 70 3.0 W 13 19 7 10 1008.9 1008.8 0.0
25/07:00am 14.7 13.9 11.1 79 1.9 W 6 15 3 8 1008.6 1008.5 0.0
25/06:30am 14.6 13.8 11.2 80 1.8 SSE 6 7 3 4 1008.3 1008.3 0.0
25/05:30am 15.5 12.8 11.6 77 2.1 WNW 17 22 9 12 1007.8 1007.8 0.0
25/05:00am 14.5 12.9 11.7 83 1.5 WNW 11 17 6 9 1007.6 1007.6 0.0
25/04:30am 13.7 13.3 12.4 92 0.7 W 6 7 3 4 1007.4 1007.4 0.0
25/04:00am 14.0 13.4 12.3 89 0.9 W 7 9 4 5 1007.3 1007.3 0.0
25/03:30am 14.6 14.1 12.6 88 1.1 WNW 7 11 4 6 1007.3 1007.3 0.0
25/03:00am 14.8 15.9 13.5 92 0.7 CALM 0 0 0 0 1007.5 1007.5 0.0
25/02:30am 16.0 17.2 13.9 87 1.2 CALM 0 0 0 0 1007.6 1007.6 0.0
25/02:00am 16.5 16.0 13.7 83 1.6 NW 9 11 5 6 1007.6 1007.6 0.0
25/01:30am 16.2 15.2 14.5 90 1.0 WNW 13 15 7 8 1007.7 1007.7 0.0
25/01:00am 16.2 15.5 14.3 88 1.1 WNW 11 11 6 6 1007.7 1007.7 0.0
25/12:30am 17.6 17.7 14.5 82 1.8 NW 7 9 4 5 1007.7 1007.7 0.0
25/12:00am 17.3 16.7 14.7 85 1.5 NW 11 11 6 6 1007.7 1007.7 0.0
 
Date/Time
EST
Tmp

°C
App
Tmp
°C
Dew
Point
°C
Rel
Hum
%
Delta-T

°C
Wind Press
QNH
hPa
Press
MSL
hPa
Rain
since
9 am
mm
Dir
 
Spd
km/h
Gust
km/h
Spd
kts
Gust
kts
24/11:30pm 17.9 16.7 15.0 83 1.7 WNW 15 19 8 10 1007.7 1007.7 0.0
24/11:00pm 19.0 17.9 15.3 79 2.2 WNW 15 19 8 10 1007.5 1007.5 0.0
24/10:30pm 19.0 18.9 16.0 83 1.8 NW 11 13 6 7 1007.4 1007.4 0.0
24/10:00pm 18.4 19.3 16.6 89 1.1 WNW 7 9 4 5 1007.4 1007.4 0.0
24/09:30pm 18.5 18.7 15.8 84 1.6 W 9 11 5 6 1007.4 1007.4 0.0
24/09:00pm 18.7 18.9 15.8 83 1.7 WNW 9 9 5 5 1007.1 1007.1 0.0
24/08:30pm 19.4 20.0 15.7 79 2.2 NE 7 9 4 5 1006.9 1006.9 0.0
24/08:00pm 19.3 21.3 16.1 82 1.9 CALM 0 0 0 0 1006.7 1006.7 0.0
24/07:30pm 19.3 19.9 15.9 81 2.0 N 7 9 4 5 1006.6 1006.6 0.0
24/07:00pm 19.2 19.5 16.0 82 1.9 N 9 9 5 5 1006.4 1006.4 0.0
24/06:30pm 20.0 20.7 16.0 78 2.4 N 7 11 4 6 1006.3 1006.3 0.0
24/06:00pm 21.0 20.9 14.9 68 3.6 N 9 11 5 6 1006.1 1006.1 0.0
24/05:30pm 21.3 20.8 14.9 67 3.8 N 11 13 6 7 1005.8 1005.8 0.0
24/05:00pm 21.9 21.2 14.4 62 4.4 NNW 11 13 6 7 1005.6 1005.6 0.0
24/04:30pm 22.9 22.0 13.6 55 5.4 N 11 15 6 8 1005.4 1005.4 0.0
24/04:00pm 23.8 22.1 13.7 53 5.9 NNW 15 22 8 12 1005.3 1005.3 0.0
24/03:30pm 24.9 22.8 13.7 49 6.6 NNW 17 22 9 12 1005.4 1005.4 0.0
24/03:00pm 25.9 22.4 13.3 45 7.4 NW 24 30 13 16 1005.4 1005.4 0.0
24/02:30pm 25.6 22.3 12.9 45 7.4 NW 22 30 12 16 1005.5 1005.5 0.0
24/02:00pm 25.5 21.8 12.8 45 7.4 NW 24 35 13 19 1005.7 1005.7 0.0
24/01:30pm 25.4 21.2 12.4 44 7.5 NW 26 35 14 19 1005.8 1005.8 0.0
24/01:00pm 25.4 21.2 13.5 47 7.0 WNW 28 33 15 18 1006.1 1006.1 0.0
24/12:30pm 24.7 22.4 14.7 53 6.0 NW 20 33 11 18 1006.6 1006.6 0.0
24/12:00pm 24.1 21.8 14.7 55 5.6 NW 20 30 11 16 1007.1 1007.1 0.0
24/11:30am 22.8 20.9 14.3 58 5.0 NW 17 26 9 14 1007.6 1007.6 0.0
24/11:27am 23.1 21.4 14.7 59 5.0 NW 17 24 9 13 1007.6 1007.6 0.0
24/11:00am 21.3 20.7 14.7 66 3.9 NW 11 13 6 7 1007.9 1007.9 -
24/10:30am 21.5 19.3 14.3 63 4.2 NW 19 - 10 - 1008.3 - -
24/10:00am 20.1 18.0 13.7 66 3.7 NW 17 20 9 11 1008.7 1008.6 -
24/09:30am 19.3 17.8 14.1 72 3.0 NW 15 19 8 10 1009.0 - -
24/09:00am 18.1 18.0 15.9 87 1.3 NW 11 13 6 7 1009.0 1008.9 0.0
24/08:30am 16.7 16.7 15.3 91 0.8 NW 9 11 5 6 1008.9 - -
24/08:00am 16.0 17.7 15.1 94 0.5 CALM 0 - 0 - 1008.8 1008.7 -
24/07:30am 14.7 15.7 14.2 97 0.3 WNW 2 7 1 4 1009.0 - -
24/07:00am 13.6 14.6 13.2 97 0.2 CALM 0 - 0 - 1008.9 1008.8 -
24/06:30am 13.4 14.3 13.0 97 0.2 CALM 0 - 0 - 1008.7 - -
24/06:00am 13.5 14.4 13.0 97 0.3 CALM 0 - 0 - 1008.6 1008.5 -
24/05:36am 12.8 - 12.4 97 0.2 - - - - - 1008.3 - -
24/05:30am 13.0 - 13.0 100 0.0 - - - - - 1008.5 - -
24/05:12am 12.7 - 12.1 96 0.3 - - - - - 1008.3 - -
24/05:00am 12.4 - 12.2 99 0.1 - - - - - 1008.5 1008.4 -
24/04:37am 13.2 - 12.8 97 0.2 - - - - - 1008.5 - -
24/04:30am 13.2 - 12.8 97 0.2 - - - - - 1008.3 - -
24/04:23am 12.9 - 12.7 99 0.1 - - - - - 1008.3 - -
24/04:00am 14.0 - 13.8 99 0.1 - - - - - 1008.3 1008.3 -
24/03:49am 12.9 - 12.9 100 0.0 - - - - - 1008.2 - -
24/03:46am 13.3 - 13.1 99 0.1 - - - - - 1008.2 - -
24/03:30am 13.8 - 13.8 100 0.0 - - - - - 1008.3 - -
24/03:00am 14.0 - 14.0 100 0.0 - - - - - 1008.7 1008.6 0.0
24/02:44am 14.3 - 13.9 97 0.2 - - - - - 1008.8 - -
24/02:30am 14.0 - 13.6 97 0.2 - - - - - 1009.0 - -
24/02:17am 13.9 - 13.5 97 0.2 - - - - - 1009.1 - -
24/02:00am 13.5 - 13.1 97 0.2 - - - - - 1009.1 1009.0 -
24/01:52am 13.2 - 12.8 97 0.2 - - - - - 1009.0 - -
24/01:30am 13.3 - 12.8 97 0.3 - - - - - 1009.1 - -
24/01:00am 13.5 - 13.0 97 0.3 - - - - - 1009.5 1009.4 -
24/12:30am 13.7 - 13.3 97 0.2 - - - - - 1009.6 - -
24/12:00am 13.9 - 13.5 97 0.2 - - - - - 1009.8 1009.7 -
 
Date/Time
EST
Tmp

°C
App
Tmp
°C
Dew
Point
°C
Rel
Hum
%
Delta-T

°C
Wind Press
QNH
hPa
Press
MSL
hPa
Rain
since
9 am
mm
Dir
 
Spd
km/h
Gust
km/h
Spd
kts
Gust
kts
23/11:49pm 14.0 - 13.5 97 0.3 - - - - - 1009.9 - -
23/11:30pm 14.0 - 13.5 97 0.3 - - - - - 1010.1 - -
23/11:27pm 14.0 - 13.6 97 0.2 - - - - - 1010.1 - -
23/11:20pm 14.4 - 13.9 97 0.3 - - - - - 1010.0 - -
23/11:00pm 14.4 - 14.2 99 0.1 - - - - - 1010.2 1010.1 -
23/10:30pm 15.2 - 14.7 97 0.3 - - - - - 1010.6 - -
23/10:00pm 15.5 - 15.0 97 0.3 - - - - - 1010.7 1010.6 -
23/09:30pm 15.1 - 14.8 98 0.2 - - - - - 1010.7 - -
23/09:00pm 15.7 - 15.0 96 0.4 - - - - - 1010.8 1010.7 0.0
23/08:30pm 15.2 - 14.9 98 0.2 - - - - - 1010.9 - -
23/08:00pm 15.7 17.4 15.2 97 0.3 CALM 0 0 0 0 1010.8 1010.7 -
23/07:30pm 16.7 18.7 16.0 96 0.4 CALM 0 0 0 0 1010.7 - -
23/07:00pm 16.3 18.1 15.6 96 0.4 CALM 0 0 0 0 1010.6 1010.5 -
23/06:30pm 16.9 18.9 16.1 95 0.5 CALM 0 0 0 0 1010.6 - -
23/06:00pm 17.2 19.4 16.4 95 0.5 CALM 0 0 0 0 1010.3 1010.2 -
23/05:30pm 17.4 19.6 16.4 94 0.6 CALM 0 0 0 0 1010.0 - -
23/05:00pm 18.9 21.1 16.4 85 1.5 CALM 0 0 0 0 1009.8 1009.7 -
23/04:30pm 19.6 20.5 16.1 80 2.1 SSW 6 7 3 4 1009.7 - -
23/04:00pm 19.7 20.1 16.4 81 2.0 SW 9 11 5 6 1009.6 1009.5 -
23/03:30pm 20.5 20.6 15.4 72 3.0 SW 9 11 5 6 1009.8 - -
23/03:00pm 20.3 20.4 15.4 73 2.9 SW 9 9 5 5 1009.9 1009.8 0.0
23/02:30pm 20.0 20.3 15.1 73 2.9 SW 7 9 4 5 1009.9 - -
23/02:00pm 20.6 19.8 14.0 66 3.8 SW 11 15 6 8 1010.1 1010.0 -
23/01:30pm 20.3 20.7 14.8 70 3.2 SW 6 7 3 4 1010.2 - -
23/01:00pm 19.7 20.3 15.7 78 2.4 SW 7 9 4 5 1010.5 1010.4 -
23/12:30pm 20.1 19.8 15.4 74 2.8 SW 11 13 6 7 1010.8 - -
23/12:00pm 19.1 19.1 15.2 78 2.3 SW 9 11 5 6 1011.2 1011.1 -
23/11:30am 19.9 - 15.1 74 2.8 - - - - - 1011.6 - -
23/11:00am 20.1 - 15.2 73 2.9 - - - - - 1012.0 1011.9 -
23/10:30am 19.4 - 15.3 77 2.4 - - - - - 1012.3 - -
23/10:00am 19.4 18.0 15.5 78 2.3 W 17 19 9 10 1012.2 1012.1 -
23/09:30am 18.5 16.9 14.9 79 2.1 W 17 19 9 10 1012.2 - -
23/09:00am 17.9 15.7 15.0 83 1.7 W 20 24 11 13 1012.3 1012.2 8.0
23/08:30am 16.1 14.1 14.9 93 0.7 W 19 24 10 13 1012.3 - -
23/08:00am 16.3 13.5 15.3 94 0.6 W 24 28 13 15 1012.4 1012.3 -
23/07:30am 16.2 14.1 15.3 94 0.5 W 20 28 11 15 1012.3 - -
23/07:00am 15.3 13.6 14.8 97 0.3 W 17 17 9 9 1012.1 1012.0 -
23/06:30am 15.2 13.4 14.5 96 0.4 W 17 19 9 10 1011.9 - -
23/06:00am 15.1 13.7 14.4 96 0.4 W 15 17 8 9 1011.3 1011.2 -

Latest Capital City Observations: Canberra | Sydney | Melbourne | Brisbane | Adelaide | Perth | Hobart | Darwin

Other Formats:

Comma delimited format used in spreadsheet applications
http://www.bom.gov.au/fwo/IDN60901/IDN60901.94776.axf

JavaScript Object Notation format (JSON) in row-major order
http://www.bom.gov.au/fwo/IDN60901/IDN60901.94776.json